Terminal Aerodrome Forecast
Issued by NWS

Current Version | Previous Version | Text Only | Print | Product List | Glossary Off
Versions: 1 2 3 4 5 6 7 8 9 10 11 12 13 14 15 16 17 18 19 20 21 22 23 24 25 26 27 28 29 30 31

000
FTUS44 KHGX 271603 AAC
TAFIAH
TAF AMD
KIAH 271603Z 2716/2818 15009KT P6SM BKN015 BKN070
     FM271900 15011KT P6SM SCT025 BKN035
     FM280400 16009KT P6SM OVC015=

USA.gov is the U.S. government's official web portal to all federal, state and local government web resources and services.